Time;durP1;ratioP1;P1;durP2;ratioP2;P2;SDS_P1;SDS_P2;PMS_P1;PMS_P2;Temp;Humidity;BMP_temperature;BMP_pressure;BME280_temperature;BME280_humidity;BME280_pressure;Samples;Min_cycle;Max_cycle;Signal;HPM_P1;HPM_P2
2023/05/13 00:00:47;;;;;;;20.47;8.50;;;8.20;99.90;;;;;;5014125;28;20264;-83
2023/05/13 00:03:12;;;;;;;20.93;9.73;;;8.20;99.90;;;;;;4997631;28;20212;-83
2023/05/13 00:05:39;;;;;;;18.07;9.20;;;8.10;99.90;;;;;;5013702;28;20182;-83
2023/05/13 00:08:06;;;;;;;16.07;9.00;;;8.00;99.90;;;;;;5013578;28;20192;-83
2023/05/13 00:10:33;;;;;;;17.80;9.17;;;8.10;99.90;;;;;;5013614;28;20619;-83
2023/05/13 00:12:58;;;;;;;20.07;9.60;;;8.10;99.90;;;;;;5013678;28;20185;-83
2023/05/13 00:15:24;;;;;;;19.10;9.63;;;8.10;99.90;;;;;;5014672;28;20186;-83
2023/05/13 00:17:50;;;;;;;23.73;9.43;;;8.10;99.90;;;;;;5015071;28;20177;-83
2023/05/13 00:20:15;;;;;;;18.23;8.57;;;8.00;99.90;;;;;;5013538;28;20181;-83
2023/05/13 00:22:41;;;;;;;22.23;9.03;;;8.10;99.90;;;;;;5014240;28;20213;-83
2023/05/13 00:25:07;;;;;;;16.73;9.13;;;8.00;99.90;;;;;;5014453;28;20559;-83
2023/05/13 00:27:33;;;;;;;17.80;8.97;;;8.00;99.90;;;;;;5013398;28;20177;-83
2023/05/13 00:29:59;;;;;;;20.40;10.13;;;8.00;99.90;;;;;;5013445;28;20196;-83
2023/05/13 00:32:25;;;;;;;19.90;8.87;;;7.90;99.90;;;;;;5014463;28;20192;-83
2023/05/13 00:34:51;;;;;;;19.67;9.17;;;8.00;99.90;;;;;;5014739;28;20204;-83
2023/05/13 00:37:16;;;;;;;19.07;8.77;;;8.00;99.90;;;;;;5013423;28;20188;-83
2023/05/13 00:39:42;;;;;;;17.57;9.27;;;8.00;99.90;;;;;;5013156;28;20185;-83
2023/05/13 00:42:11;;;;;;;17.00;10.00;;;8.00;99.90;;;;;;5013091;28;20221;-82
2023/05/13 00:44:37;;;;;;;25.40;9.50;;;8.10;99.90;;;;;;5014162;28;20181;-83
2023/05/13 00:47:04;;;;;;;21.63;9.63;;;8.10;99.90;;;;;;5014409;28;20177;-83
2023/05/13 00:49:34;;;;;;;21.07;9.40;;;8.10;99.90;;;;;;5014226;28;20185;-83
2023/05/13 00:52:00;;;;;;;24.23;9.67;;;8.10;99.90;;;;;;4996714;28;20213;-83
2023/05/13 00:54:27;;;;;;;19.27;9.50;;;8.10;99.90;;;;;;5013032;28;20215;-83
2023/05/13 00:56:55;;;;;;;22.30;10.43;;;8.10;99.90;;;;;;5014282;28;20209;-82
2023/05/13 00:59:23;;;;;;;19.53;9.33;;;8.10;99.90;;;;;;5013282;28;20208;-83
2023/05/13 01:02:15;;;;;;;20.23;9.83;;;8.10;99.90;;;;;;5014826;28;20205;-83
2023/05/13 01:04:49;;;;;;;17.27;9.67;;;8.10;99.90;;;;;;5024608;28;20236;-83
2023/05/13 01:07:23;;;;;;;25.23;10.27;;;8.10;99.90;;;;;;5037963;28;20154;-82
2023/05/13 01:10:07;;;;;;;18.67;9.37;;;8.10;99.90;;;;;;5023279;28;20180;-82
2023/05/13 01:12:37;;;;;;;25.13;10.43;;;8.20;99.90;;;;;;5013665;28;20666;-82
2023/05/13 01:15:04;;;;;;;21.40;10.30;;;8.20;99.90;;;;;;5012877;28;20546;-82
2023/05/13 01:17:51;;;;;;;25.50;10.07;;;8.20;99.90;;;;;;5013825;28;20180;-82
2023/05/13 01:20:22;;;;;;;19.60;9.07;;;8.20;99.90;;;;;;5014278;28;20173;-82
2023/05/13 01:22:48;;;;;;;23.03;9.83;;;8.20;99.90;;;;;;5012290;28;20343;-82
2023/05/13 01:25:13;;;;;;;22.90;10.70;;;8.20;99.90;;;;;;5017006;28;20197;-83
2023/05/13 01:27:39;;;;;;;19.37;9.43;;;8.30;99.90;;;;;;5016623;28;20196;-82
2023/05/13 01:30:07;;;;;;;27.93;10.17;;;8.20;99.90;;;;;;5017878;28;20173;-83
2023/05/13 01:32:36;;;;;;;19.00;9.83;;;8.20;99.90;;;;;;5000395;28;20240;-81
2023/05/13 01:35:02;;;;;;;17.73;9.23;;;8.20;99.90;;;;;;5032831;28;20178;-82
2023/05/13 01:37:29;;;;;;;18.40;9.40;;;7.90;99.90;;;;;;5037394;28;20189;-82
2023/05/13 01:39:54;;;;;;;20.37;10.63;;;8.10;99.90;;;;;;5037453;28;20162;-83
2023/05/13 01:42:22;;;;;;;21.40;8.90;;;8.10;99.90;;;;;;5037174;28;20219;-83
2023/05/13 01:44:47;;;;;;;24.80;10.10;;;8.00;99.90;;;;;;5019340;28;20247;-82
2023/05/13 01:47:14;;;;;;;21.40;10.10;;;8.00;99.90;;;;;;5015797;28;20625;-82
2023/05/13 01:49:40;;;;;;;18.80;9.03;;;7.90;99.90;;;;;;5018515;28;20181;-82
2023/05/13 01:52:05;;;;;;;17.50;8.47;;;7.90;99.90;;;;;;5037171;28;20188;-82
2023/05/13 01:54:31;;;;;;;20.53;8.87;;;7.80;99.90;;;;;;5037693;28;20192;-82
2023/05/13 01:56:57;;;;;;;17.93;9.37;;;7.80;99.90;;;;;;5020806;28;20260;-82
2023/05/13 01:59:22;;;;;;;19.90;9.67;;;7.70;99.90;;;;;;5013715;28;20518;-82
2023/05/13 02:01:48;;;;;;;24.17;10.73;;;7.70;99.90;;;;;;4995722;28;20220;-82
2023/05/13 02:04:14;;;;;;;19.00;8.77;;;7.70;99.90;;;;;;5013779;28;20304;-82
2023/05/13 02:06:39;;;;;;;17.00;8.63;;;7.70;99.90;;;;;;4995772;28;20677;-82
2023/05/13 02:09:05;;;;;;;16.40;9.03;;;7.70;99.90;;;;;;5013312;28;20209;-82
2023/05/13 02:11:31;;;;;;;19.23;8.47;;;7.60;99.90;;;;;;5012169;28;20185;-82
2023/05/13 02:13:56;;;;;;;18.50;8.73;;;7.70;99.90;;;;;;5011884;28;20782;-81
2023/05/13 02:16:22;;;;;;;22.57;9.67;;;7.60;99.90;;;;;;5012113;28;20567;-81
2023/05/13 02:18:48;;;;;;;16.47;8.57;;;7.60;99.90;;;;;;5013238;28;20182;-82
2023/05/13 02:21:13;;;;;;;19.60;9.17;;;7.50;99.90;;;;;;5013474;28;20260;-82
2023/05/13 02:23:39;;;;;;;19.57;9.40;;;;;;;;;;5011845;28;20213;-82
2023/05/13 02:26:05;;;;;;;15.90;9.10;;;7.40;99.90;;;;;;5012173;28;20247;-82
2023/05/13 02:28:30;;;;;;;19.23;9.10;;;7.30;99.90;;;;;;5011826;28;20185;-82
2023/05/13 02:30:56;;;;;;;17.67;8.73;;;;;;;;;;5011965;28;20264;-82
2023/05/13 02:33:22;;;;;;;20.73;9.77;;;7.20;99.90;;;;;;5013798;28;20186;-82
2023/05/13 02:35:48;;;;;;;17.10;9.57;;;7.20;99.90;;;;;;5013068;28;20642;-82
2023/05/13 02:38:13;;;;;;;18.23;8.90;;;7.20;99.90;;;;;;4995445;28;20713;-82
2023/05/13 02:40:39;;;;;;;25.10;8.57;;;7.20;99.90;;;;;;5012041;28;20189;-82
2023/05/13 02:43:05;;;;;;;18.50;9.97;;;7.10;99.90;;;;;;5011672;28;20284;-83
2023/05/13 02:45:30;;;;;;;16.73;8.57;;;7.10;99.90;;;;;;5013183;28;20211;-82
2023/05/13 02:47:56;;;;;;;30.70;8.50;;;7.00;99.90;;;;;;4980335;28;20181;-82
2023/05/13 02:50:22;;;;;;;20.20;10.50;;;7.00;99.90;;;;;;5015656;28;20189;-83
2023/05/13 02:52:47;;;;;;;19.83;10.40;;;7.00;99.90;;;;;;5016385;28;20626;-83
2023/05/13 02:55:13;;;;;;;21.37;11.17;;;7.00;99.90;;;;;;5015328;28;20855;-83
2023/05/13 02:57:38;;;;;;;22.73;10.13;;;6.90;99.90;;;;;;5016532;28;20623;-83
2023/05/13 03:00:05;;;;;;;21.30;9.77;;;6.90;99.90;;;;;;5015228;28;20626;-83
2023/05/13 03:02:33;;;;;;;20.67;9.87;;;6.90;99.90;;;;;;5016527;28;20205;-83
2023/05/13 03:04:59;;;;;;;21.53;9.57;;;;;;;;;;5015077;28;20205;-84
2023/05/13 03:07:25;;;;;;;19.90;9.00;;;;;;;;;;5015300;28;20189;-83
2023/05/13 03:09:51;;;;;;;16.90;8.73;;;;;;;;;;4998579;28;20185;-85
2023/05/13 03:12:16;;;;;;;15.23;8.50;;;6.90;99.90;;;;;;4998341;28;20276;-81
2023/05/13 03:14:43;;;;;;;15.97;9.27;;;7.00;99.90;;;;;;4998903;28;20271;-81
2023/05/13 03:17:09;;;;;;;15.90;8.97;;;7.00;99.90;;;;;;5014781;28;20186;-80
2023/05/13 03:19:38;;;;;;;17.50;8.97;;;6.90;99.90;;;;;;5014989;28;20177;-81
2023/05/13 03:22:05;;;;;;;18.67;8.57;;;7.00;99.90;;;;;;5015859;28;20240;-81
2023/05/13 03:24:30;;;;;;;16.37;9.00;;;7.00;99.90;;;;;;5015773;28;20177;-82
2023/05/13 03:26:56;;;;;;;22.47;9.77;;;7.10;99.90;;;;;;5015739;28;20251;-82
2023/05/13 03:29:22;;;;;;;19.63;9.73;;;7.30;99.90;;;;;;5015834;28;20177;-82
2023/05/13 03:31:49;;;;;;;21.70;9.73;;;7.20;99.90;;;;;;5016193;28;20505;-82
2023/05/13 03:34:15;;;;;;;18.37;10.20;;;7.20;99.90;;;;;;5014807;28;20193;-83
2023/05/13 03:36:40;;;;;;;22.10;10.57;;;7.30;99.90;;;;;;4998221;28;20220;-83
2023/05/13 03:39:06;;;;;;;18.63;10.63;;;7.40;99.90;;;;;;4997628;28;20233;-86
2023/05/13 03:41:32;;;;;;;19.83;9.83;;;7.40;99.90;;;;;;5015824;28;20200;-86
2023/05/13 03:43:58;;;;;;;20.27;10.27;;;7.50;99.90;;;;;;5014470;28;20181;-86
2023/05/13 03:46:26;;;;;;;23.07;10.33;;;7.50;99.90;;;;;;5015648;28;20181;-86
2023/05/13 03:48:52;;;;;;;24.47;10.03;;;7.60;99.90;;;;;;5014652;28;20280;-86
2023/05/13 03:51:17;;;;;;;17.97;10.53;;;8.00;99.90;;;;;;5014333;28;20228;-85
2023/05/13 03:53:43;;;;;;;16.83;10.13;;;7.80;99.90;;;;;;5014071;28;20185;-86
2023/05/13 03:56:09;;;;;;;20.07;10.17;;;7.80;99.90;;;;;;4997609;28;20185;-86
2023/05/13 03:58:35;;;;;;;21.77;10.20;;;7.90;99.90;;;;;;5014650;28;20185;-87
2023/05/13 04:01:01;;;;;;;20.10;9.30;;;8.00;99.90;;;;;;5013839;28;20696;-86
2023/05/13 04:03:27;;;;;;;20.63;9.00;;;8.20;99.90;;;;;;4997799;28;20225;-87
2023/05/13 04:05:53;;;;;;;25.47;10.53;;;8.30;99.90;;;;;;5013907;28;20535;-85
2023/05/13 04:08:18;;;;;;;21.73;10.07;;;8.40;99.90;;;;;;5013900;28;20181;-87
2023/05/13 04:10:44;;;;;;;32.97;11.32;;;8.60;99.90;;;;;;4981204;28;20189;-86
2023/05/13 04:13:10;;;;;;;27.57;11.53;;;8.70;99.90;;;;;;5015085;28;20186;-86
2023/05/13 04:15:35;;;;;;;25.00;11.10;;;8.90;99.90;;;;;;5013722;28;20231;-84
2023/05/13 04:18:01;;;;;;;19.03;10.40;;;;;;;;;;4997538;28;20200;-84
2023/05/13 04:20:28;;;;;;;21.15;10.95;;;9.20;99.90;;;;;;5013033;28;20189;-85
2023/05/13 04:22:53;;;;;;;22.83;10.60;;;9.40;99.90;;;;;;5046364;28;20213;-85
2023/05/13 04:25:19;;;;;;;14.07;9.13;;;9.50;99.90;;;;;;5005558;28;20204;-84
2023/05/13 04:27:46;;;;;;;21.85;10.80;;;9.60;99.90;;;;;;5012071;28;20193;-84
2023/05/13 04:30:12;;;;;;;18.17;9.57;;;9.70;99.90;;;;;;5011899;28;20181;-83
2023/05/13 04:32:38;;;;;;;20.38;10.32;;;9.80;99.90;;;;;;5013334;28;20217;-83
2023/05/13 04:35:06;;;;;;;17.30;9.65;;;9.90;99.90;;;;;;5012985;28;20196;-83
2023/05/13 04:37:31;;;;;;;15.57;9.50;;;10.00;99.90;;;;;;5014371;28;20323;-84
2023/05/13 04:39:57;;;;;;;21.25;10.40;;;10.10;99.90;;;;;;5014621;28;20714;-83
2023/05/13 04:42:23;;;;;;;15.25;8.52;;;10.30;99.90;;;;;;5035997;28;20205;-83
2023/05/13 04:44:48;;;;;;;19.55;9.90;;;10.40;99.90;;;;;;5036710;28;20177;-82
2023/05/13 04:47:14;;;;;;;17.77;9.10;;;10.60;99.90;;;;;;5030546;28;20193;-83
2023/05/13 04:49:40;;;;;;;16.63;8.77;;;10.70;99.90;;;;;;5013699;28;20256;-84
2023/05/13 04:52:06;;;;;;;18.40;9.25;;;;;;;;;;5012424;28;20196;-83
2023/05/13 04:54:34;;;;;;;17.70;8.75;;;11.00;99.90;;;;;;5011712;28;20531;-83
2023/05/13 04:57:00;;;;;;;15.73;9.13;;;11.10;99.90;;;;;;5011572;28;20193;-83
2023/05/13 04:59:26;;;;;;;17.90;8.65;;;11.40;99.90;;;;;;5011948;28;20247;-82
2023/05/13 05:01:52;;;;;;;18.17;9.52;;;11.40;99.90;;;;;;5013738;28;20213;-83
2023/05/13 05:04:18;;;;;;;18.55;9.45;;;11.60;99.90;;;;;;5043715;28;20193;-83
2023/05/13 05:06:43;;;;;;;20.67;9.10;;;11.70;99.90;;;;;;5013028;28;20181;-83
2023/05/13 05:09:09;;;;;;;14.30;7.20;;;11.80;99.90;;;;;;5014179;28;20189;-83
2023/05/13 05:11:35;;;;;;;16.23;8.00;;;11.90;99.90;;;;;;5012541;28;20189;-84
2023/05/13 05:14:01;;;;;;;12.40;7.20;;;12.10;99.90;;;;;;5011049;28;20180;-83
2023/05/13 05:16:26;;;;;;;12.50;7.57;;;12.20;99.90;;;;;;4992071;28;20186;-85
2023/05/13 05:18:52;;;;;;;13.68;7.22;;;12.40;99.90;;;;;;4995673;28;20193;-85
2023/05/13 05:21:18;;;;;;;13.88;7.57;;;12.50;99.90;;;;;;4996281;28;20185;-84
2023/05/13 05:23:43;;;;;;;19.52;8.63;;;12.70;99.90;;;;;;5029265;28;20220;-83
2023/05/13 05:26:09;;;;;;;13.98;7.32;;;12.80;99.90;;;;;;5013276;28;20201;-83
2023/05/13 05:28:38;;;;;;;13.52;7.07;;;12.90;98.90;;;;;;5020136;28;20191;-84
2023/05/13 05:31:05;;;;;;;12.90;6.75;;;13.10;98.10;;;;;;5016899;28;20533;-83
2023/05/13 05:33:31;;;;;;;17.08;6.72;;;13.20;97.10;;;;;;5013294;28;20276;-83
2023/05/13 05:35:57;;;;;;;10.82;7.03;;;13.40;95.80;;;;;;5012505;28;20177;-84
2023/05/13 05:38:25;;;;;;;16.77;7.30;;;13.50;95.30;;;;;;5036523;28;20291;-82
2023/05/13 05:40:51;;;;;;;12.85;6.40;;;13.70;94.30;;;;;;5032351;28;20274;-82
2023/05/13 05:43:17;;;;;;;10.48;6.57;;;13.80;94.40;;;;;;5026823;28;20224;-81
2023/05/13 05:45:43;;;;;;;9.30;6.57;;;14.00;94.20;;;;;;5028600;28;20642;-82
2023/05/13 05:48:09;;;;;;;10.27;5.65;;;14.10;94.40;;;;;;5019083;28;20189;-82
2023/05/13 05:50:36;;;;;;;15.77;6.70;;;14.20;92.20;;;;;;5018705;28;20191;-85
2023/05/13 05:53:03;;;;;;;13.40;6.50;;;14.40;92.00;;;;;;5022463;28;20239;-83
2023/05/13 05:55:30;;;;;;;9.40;5.18;;;14.50;91.40;;;;;;5018158;28;20192;-84
2023/05/13 05:57:56;;;;;;;10.40;4.45;;;14.70;86.60;;;;;;5026752;28;20196;-84
2023/05/13 06:00:22;;;;;;;10.10;4.40;;;14.90;83.60;;;;;;5024234;28;20247;-82
2023/05/13 06:02:48;;;;;;;7.38;4.03;;;15.00;81.50;;;;;;5051371;28;20811;-83
2023/05/13 06:05:14;;;;;;;7.72;3.78;;;15.20;78.00;;;;;;5018083;28;20177;-80
2023/05/13 06:07:40;;;;;;;6.50;3.53;;;15.30;78.20;;;;;;5016935;28;20182;-81
2023/05/13 06:10:06;;;;;;;9.70;3.88;;;15.40;77.10;;;;;;5017926;28;20185;-81
2023/05/13 06:12:32;;;;;;;9.68;4.20;;;15.50;76.60;;;;;;5018877;28;20189;-83
2023/05/13 06:14:58;;;;;;;11.43;3.70;;;15.60;76.60;;;;;;5019231;28;20196;-81
2023/05/13 06:17:24;;;;;;;6.88;4.00;;;15.70;74.80;;;;;;5049157;28;20185;-82
2023/05/13 06:19:50;;;;;;;7.60;3.97;;;15.80;74.40;;;;;;5018634;28;20189;-82
2023/05/13 06:22:16;;;;;;;9.35;4.30;;;15.90;75.00;;;;;;5036146;28;20212;-81
2023/05/13 06:24:43;;;;;;;7.18;4.03;;;16.00;74.70;;;;;;5036759;28;20217;-81
2023/05/13 06:27:12;;;;;;;8.68;4.25;;;16.10;76.70;;;;;;5049579;28;20204;-81
2023/05/13 06:29:38;;;;;;;8.25;4.20;;;16.30;73.50;;;;;;5051136;28;20177;-82
2023/05/13 06:32:04;;;;;;;6.30;4.07;;;16.30;71.90;;;;;;5021144;28;20324;-82
2023/05/13 06:34:30;;;;;;;7.95;3.80;;;16.50;71.80;;;;;;5053138;28;20173;-82
2023/05/13 06:36:56;;;;;;;6.80;4.45;;;16.60;70.80;;;;;;5015781;28;20182;-82
2023/05/13 06:39:22;;;;;;;8.55;4.70;;;16.70;70.20;;;;;;5016368;28;20232;-83
2023/05/13 06:41:48;;;;;;;7.40;3.45;;;16.80;70.90;;;;;;5021037;28;20513;-83
2023/05/13 06:44:13;;;;;;;6.35;4.47;;;16.90;70.50;;;;;;5021902;28;20185;-83
2023/05/13 06:46:39;;;;;;;4.97;3.33;;;17.00;69.80;;;;;;5055181;28;20187;-83
2023/05/13 06:49:05;;;;;;;5.80;3.63;;;17.20;66.30;;;;;;5055252;28;20189;-83
2023/05/13 06:51:32;;;;;;;5.95;3.00;;;17.30;65.70;;;;;;5024330;28;20193;-83
2023/05/13 06:53:58;;;;;;;5.32;3.13;;;17.40;64.10;;;;;;5017068;28;20216;-83
2023/05/13 06:56:24;;;;;;;5.43;2.72;;;17.50;61.70;;;;;;5015760;28;20200;-84
2023/05/13 06:58:51;;;;;;;8.27;3.00;;;17.70;60.60;;;;;;5016618;28;20180;-84
2023/05/13 07:01:17;;;;;;;5.85;2.85;;;17.90;59.00;;;;;;5014757;28;20173;-83
2023/05/13 07:03:43;;;;;;;4.80;2.80;;;18.00;59.30;;;;;;5015757;28;20312;-84
2023/05/13 07:06:09;;;;;;;3.17;2.30;;;17.90;58.70;;;;;;5015513;28;20178;-82
2023/05/13 07:08:35;;;;;;;4.00;2.50;;;18.30;56.70;;;;;;5015519;28;20672;-83
2023/05/13 07:11:01;;;;;;;2.58;2.20;;;18.40;54.50;;;;;;5016683;28;20181;-83
2023/05/13 07:13:26;;;;;;;5.60;2.30;;;18.40;52.90;;;;;;5015089;28;20185;-83
2023/05/13 07:15:52;;;;;;;4.43;2.10;;;18.50;54.20;;;;;;5015184;28;20293;-83
2023/05/13 07:18:18;;;;;;;3.53;2.40;;;18.50;53.00;;;;;;5014451;28;20205;-83
2023/05/13 07:20:43;;;;;;;4.47;3.70;;;18.50;52.50;;;;;;5015777;28;20208;-83
2023/05/13 07:23:09;;;;;;;3.80;2.20;;;18.60;52.50;;;;;;5015103;28;20220;-82
2023/05/13 07:25:35;;;;;;;2.83;2.30;;;18.70;52.90;;;;;;5017573;28;20177;-83
2023/05/13 07:28:01;;;;;;;3.28;2.05;;;18.80;52.10;;;;;;5001826;28;20635;-82
2023/05/13 07:30:26;;;;;;;3.70;2.33;;;18.90;52.30;;;;;;5018833;28;20177;-83
2023/05/13 07:32:53;;;;;;;3.47;2.20;;;18.90;52.70;;;;;;5002609;28;20242;-83
2023/05/13 07:35:19;;;;;;;4.80;2.17;;;19.00;51.80;;;;;;5033002;28;20185;-83
2023/05/13 07:37:45;;;;;;;3.05;2.40;;;19.10;51.90;;;;;;5039685;28;20229;-82
2023/05/13 07:40:12;;;;;;;5.55;2.42;;;19.20;52.70;;;;;;5040049;28;20170;-82
2023/05/13 07:42:37;;;;;;;4.88;3.15;;;19.30;52.20;;;;;;5037523;28;20193;-82
2023/05/13 07:45:04;;;;;;;3.58;2.47;;;19.40;52.00;;;;;;5022803;28;20639;-82
2023/05/13 07:47:30;;;;;;;2.95;2.17;;;19.40;50.60;;;;;;5024881;28;20183;-86
2023/05/13 07:49:56;;;;;;;6.53;2.55;;;19.60;52.10;;;;;;5034896;28;20172;-82
2023/05/13 07:52:22;;;;;;;3.45;2.22;;;19.70;50.40;;;;;;5022984;28;20166;-83
2023/05/13 07:54:48;;;;;;;4.32;2.35;;;19.80;50.50;;;;;;5039058;28;20213;-82
2023/05/13 07:57:14;;;;;;;4.03;2.38;;;19.80;50.70;;;;;;5016382;28;20182;-82
2023/05/13 07:59:40;;;;;;;2.92;2.03;;;19.80;50.00;;;;;;5027196;28;20237;-82
2023/05/13 08:02:06;;;;;;;3.25;2.45;;;19.80;50.30;;;;;;5001902;28;20589;-82
2023/05/13 08:04:32;;;;;;;5.68;2.78;;;19.80;49.70;;;;;;4998733;28;20613;-83
2023/05/13 08:07:00;;;;;;;5.72;2.33;;;19.90;50.60;;;;;;5013839;28;20212;-82
2023/05/13 08:09:26;;;;;;;2.42;1.83;;;20.00;49.70;;;;;;5013939;28;20177;-82
2023/05/13 08:11:53;;;;;;;2.42;1.67;;;20.10;48.90;;;;;;5014883;28;20181;-82
2023/05/13 08:14:19;;;;;;;4.13;2.40;;;20.00;49.10;;;;;;5014813;28;20272;-83
2023/05/13 08:16:45;;;;;;;2.80;2.05;;;20.00;49.80;;;;;;5015345;28;20216;-82
2023/05/13 08:19:12;;;;;;;3.22;1.75;;;20.00;48.90;;;;;;5016310;28;20181;-82
2023/05/13 08:21:38;;;;;;;4.30;2.10;;;20.10;49.60;;;;;;5027993;28;20201;-83
2023/05/13 08:24:04;;;;;;;2.33;2.03;;;20.10;50.40;;;;;;5038671;28;20221;-83
2023/05/13 08:26:30;;;;;;;3.15;2.40;;;20.20;51.10;;;;;;5024289;28;20192;-81
2023/05/13 08:28:56;;;;;;;3.15;1.90;;;20.20;50.20;;;;;;5015020;28;20177;-81
2023/05/13 08:31:23;;;;;;;1.80;1.70;;;20.20;48.30;;;;;;5014834;28;20181;-82
2023/05/13 08:33:50;;;;;;;4.65;2.22;;;20.20;48.80;;;;;;5014117;28;20181;-83
2023/05/13 08:36:16;;;;;;;4.68;1.85;;;20.20;48.90;;;;;;5013072;28;20177;-81
2023/05/13 08:38:42;;;;;;;2.03;1.65;;;20.20;48.00;;;;;;5012560;28;20233;-81
2023/05/13 08:41:11;;;;;;;3.97;1.70;;;20.30;49.40;;;;;;5012762;28;20184;-82
2023/05/13 08:43:38;;;;;;;5.22;2.13;;;20.30;48.80;;;;;;5013790;28;20209;-83
2023/05/13 08:46:08;;;;;;;3.38;2.00;;;20.40;48.40;;;;;;5013244;28;20169;-81
2023/05/13 08:48:36;;;;;;;2.08;1.80;;;20.50;49.10;;;;;;5013938;28;20204;-82
2023/05/13 08:51:02;;;;;;;5.53;2.08;;;20.40;47.80;;;;;;5012711;28;20227;-83
2023/05/13 08:53:30;;;;;;;3.65;2.33;;;20.50;49.90;;;;;;5013071;28;20185;-83
2023/05/13 08:55:56;;;;;;;3.95;2.10;;;20.70;49.20;;;;;;5013240;28;20213;-84
2023/05/13 08:58:24;;;;;;;4.63;2.22;;;20.90;50.90;;;;;;5014501;28;20638;-82
2023/05/13 09:00:51;;;;;;;5.50;2.38;;;21.10;52.70;;;;;;5012987;28;20177;-82
2023/05/13 09:03:18;;;;;;;3.90;2.50;;;21.10;53.20;;;;;;5012532;28;20542;-81
2023/05/13 09:05:44;;;;;;;2.95;2.30;;;20.90;50.80;;;;;;5013679;28;20180;-82
2023/05/13 09:08:11;;;;;;;2.80;2.13;;;;;;;;;;5013826;28;20592;-83
2023/05/13 09:10:37;;;;;;;5.18;2.42;;;20.30;51.70;;;;;;5011883;28;20181;-83
2023/05/13 09:13:03;;;;;;;3.70;2.53;;;20.20;53.70;;;;;;5013958;28;20189;-81
2023/05/13 09:15:30;;;;;;;8.32;3.13;;;20.50;54.90;;;;;;5013902;28;20178;-81
2023/05/13 09:18:01;;;;;;;6.35;2.53;;;20.70;56.20;;;;;;5013804;28;20181;-81
2023/05/13 09:20:28;;;;;;;2.92;2.58;;;20.90;55.70;;;;;;5014579;28;20184;-83
2023/05/13 09:22:55;;;;;;;4.88;2.58;;;21.10;55.90;;;;;;5014631;28;20209;-82
2023/05/13 09:25:25;;;;;;;3.78;2.58;;;20.90;55.30;;;;;;5014549;28;20219;-82
2023/05/13 09:27:56;;;;;;;6.88;2.53;;;20.80;54.40;;;;;;5012997;28;20271;-83
2023/05/13 09:30:29;;;;;;;5.43;2.25;;;20.70;55.70;;;;;;5013002;28;20178;-83
2023/05/13 09:33:06;;;;;;;2.95;1.88;;;20.70;55.20;;;;;;5045424;28;20188;-82
2023/05/13 09:35:33;;;;;;;3.53;2.42;;;20.70;54.90;;;;;;5012828;28;20185;-82
2023/05/13 09:37:59;;;;;;;3.50;2.33;;;20.90;54.80;;;;;;5012404;28;20600;-82
2023/05/13 09:40:24;;;;;;;3.20;2.40;;;20.70;53.70;;;;;;5014200;28;20176;-83
2023/05/13 09:42:50;;;;;;;5.78;2.22;;;21.00;55.30;;;;;;5043946;28;20212;-83
2023/05/13 09:45:16;;;;;;;3.15;2.35;;;21.10;53.80;;;;;;5012758;28;20177;-81
2023/05/13 09:47:43;;;;;;;4.13;2.47;;;21.10;52.50;;;;;;5013439;28;20177;-83
2023/05/13 09:50:10;;;;;;;3.00;2.22;;;21.00;52.50;;;;;;5013502;28;20179;-81
2023/05/13 09:52:37;;;;;;;2.38;2.15;;;21.00;48.70;;;;;;5012846;28;20180;-82
2023/05/13 09:55:07;;;;;;;3.28;2.45;;;21.30;47.70;;;;;;5012994;28;20503;-83
2023/05/13 09:57:33;;;;;;;3.22;2.30;;;21.20;47.70;;;;;;5046378;28;20177;-82
2023/05/13 10:00:00;;;;;;;5.07;1.95;;;21.40;47.90;;;;;;5017570;28;20235;-82
2023/05/13 10:02:26;;;;;;;3.20;1.90;;;21.60;48.60;;;;;;5017940;28;20296;-83
2023/05/13 10:04:55;;;;;;;6.47;1.85;;;21.80;49.00;;;;;;5017553;28;20205;-82
2023/05/13 10:07:25;;;;;;;2.30;2.00;;;22.00;48.70;;;;;;5017983;28;20219;-83
2023/05/13 10:09:53;;;;;;;4.18;2.33;;;22.10;47.20;;;;;;5017103;28;20181;-82
2023/05/13 10:12:21;;;;;;;2.25;1.67;;;22.20;48.20;;;;;;5017310;28;20192;-83
2023/05/13 10:14:50;;;;;;;3.05;1.90;;;22.30;47.60;;;;;;5017104;28;20244;-83
2023/05/13 10:17:19;;;;;;;4.07;2.22;;;22.20;47.20;;;;;;5017313;28;20235;-83
2023/05/13 10:19:51;;;;;;;2.50;2.03;;;22.30;47.60;;;;;;5017242;28;20188;-83
2023/05/13 10:22:30;;;;;;;6.22;2.00;;;22.30;48.00;;;;;;5017262;28;20204;-82
2023/05/13 10:24:57;;;;;;;3.90;2.20;;;22.30;44.30;;;;;;5017563;28;20166;-83
2023/05/13 10:27:31;;;;;;;3.03;1.88;;;22.40;44.10;;;;;;5017680;28;20177;-82
2023/05/13 10:29:58;;;;;;;1.92;1.70;;;22.60;44.10;;;;;;5017531;28;20256;-83
2023/05/13 10:32:27;;;;;;;5.05;1.67;;;22.80;45.70;;;;;;5017461;28;20196;-83
2023/05/13 10:35:14;;;;;;;2.47;1.30;;;22.80;43.10;;;;;;5015868;28;20177;-82
2023/05/13 10:38:09;;;;;;;2.47;1.40;;;22.80;41.80;;;;;;5016997;28;20240;-82
2023/05/13 10:41:19;;;;;;;1.42;1.33;;;22.30;41.60;;;;;;5032147;28;20185;-83
2023/05/13 10:43:45;;;;;;;2.63;1.58;;;22.50;41.70;;;;;;4975007;28;20229;-85
2023/05/13 10:46:12;;;;;;;4.88;1.80;;;22.40;40.60;;;;;;5002957;28;20594;-84
2023/05/13 10:48:48;;;;;;;3.55;1.73;;;22.40;41.80;;;;;;5016432;28;20174;-83
2023/05/13 10:51:15;;;;;;;3.10;1.65;;;22.40;41.70;;;;;;5048635;28;20169;-82
2023/05/13 10:53:54;;;;;;;2.42;1.48;;;22.70;42.20;;;;;;5017780;28;20269;-82
2023/05/13 10:56:23;;;;;;;4.55;1.85;;;22.70;41.30;;;;;;5015710;28;20180;-83
2023/05/13 10:59:03;;;;;;;3.88;2.30;;;22.70;40.60;;;;;;5016061;28;20521;-84
2023/05/13 11:01:34;;;;;;;1.55;1.42;;;22.70;40.90;;;;;;5016529;28;20200;-82
2023/05/13 11:04:02;;;;;;;1.42;1.33;;;22.80;42.10;;;;;;5016467;28;20205;-84
2023/05/13 11:06:34;;;;;;;4.05;1.80;;;22.90;40.90;;;;;;5017224;28;20700;-83
2023/05/13 11:09:03;;;;;;;4.53;1.83;;;23.10;41.20;;;;;;5015200;28;20178;-83
2023/05/13 11:11:31;;;;;;;2.25;1.48;;;23.30;40.60;;;;;;5015130;28;20181;-83
2023/05/13 11:14:19;;;;;;;1.40;1.30;;;23.50;38.40;;;;;;5014684;28;20276;-82
2023/05/13 11:16:51;;;;;;;2.00;1.50;;;23.70;38.90;;;;;;5012792;28;20338;-82
2023/05/13 11:19:36;;;;;;;2.05;1.60;;;23.30;38.70;;;;;;5012549;28;20184;-84
2023/05/13 11:22:13;;;;;;;1.55;1.45;;;22.70;40.30;;;;;;5014360;28;20164;-83
2023/05/13 11:24:40;;;;;;;1.85;1.40;;;22.90;39.40;;;;;;5012151;28;20172;-83
2023/05/13 11:27:14;;;;;;;2.00;1.55;;;22.50;38.10;;;;;;5046347;28;20196;-83
2023/05/13 11:29:54;;;;;;;3.15;1.60;;;22.40;38.50;;;;;;5041217;28;20185;-83
2023/05/13 11:32:51;;;;;;;2.30;2.00;;;22.60;39.90;;;;;;4998951;28;20316;-82
2023/05/13 11:35:30;;;;;;;2.65;1.50;;;22.90;40.30;;;;;;5012958;28;20228;-83
2023/05/13 11:38:00;;;;;;;2.78;1.67;;;23.00;39.50;;;;;;5012519;28;20228;-85
2023/05/13 11:40:31;;;;;;;2.00;1.45;;;23.00;40.00;;;;;;5015367;28;20177;-87
2023/05/13 11:42:58;;;;;;;1.35;1.20;;;23.00;40.70;;;;;;5015080;28;20296;-84
2023/05/13 11:45:25;;;;;;;1.88;1.40;;;23.10;40.50;;;;;;5015516;28;20213;-83
2023/05/13 11:47:52;;;;;;;2.03;1.40;;;23.10;38.00;;;;;;5012065;28;20569;-83
2023/05/13 11:50:31;;;;;;;1.33;1.15;;;23.20;39.10;;;;;;5014003;28;20205;-84
2023/05/13 11:52:58;;;;;;;1.90;1.60;;;23.50;37.10;;;;;;5046381;28;20271;-83
2023/05/13 11:55:25;;;;;;;3.47;2.03;;;23.40;37.90;;;;;;5013632;28;20664;-83
2023/05/13 11:57:51;;;;;;;1.25;1.15;;;23.50;37.80;;;;;;5014937;28;20243;-83
2023/05/13 12:00:22;;;;;;;4.50;1.70;;;23.50;37.80;;;;;;5021996;28;20173;-84
2023/05/13 12:02:49;;;;;;;1.45;1.25;;;23.60;37.40;;;;;;5038462;28;20211;-85
2023/05/13 12:05:14;;;;;;;3.13;2.03;;;23.60;37.80;;;;;;4995542;28;20623;-84
2023/05/13 12:07:40;;;;;;;3.92;1.60;;;23.70;36.60;;;;;;5014113;28;20193;-84
2023/05/13 12:10:06;;;;;;;1.98;1.42;;;23.70;37.00;;;;;;5012597;28;20186;-84
2023/05/13 12:12:34;;;;;;;1.95;1.20;;;23.50;36.80;;;;;;5013409;28;20180;-81
2023/05/13 12:15:02;;;;;;;2.70;1.45;;;23.30;36.90;;;;;;5013006;28;20182;-83
2023/05/13 12:17:29;;;;;;;2.13;1.30;;;23.40;36.60;;;;;;5013805;28;20181;-82
2023/05/13 12:20:10;;;;;;;2.47;1.40;;;23.20;36.60;;;;;;5013753;28;20179;-80
2023/05/13 12:22:48;;;;;;;1.88;1.70;;;23.20;36.70;;;;;;5013659;28;20284;-83
2023/05/13 12:25:40;;;;;;;1.58;1.48;;;23.40;37.30;;;;;;5014062;28;20173;-83
2023/05/13 12:28:18;;;;;;;5.75;1.55;;;23.60;37.80;;;;;;5013379;28;20544;-84
2023/05/13 12:31:01;;;;;;;2.40;1.73;;;23.70;38.00;;;;;;5010140;28;20606;-83
2023/05/13 12:33:28;;;;;;;2.60;1.42;;;23.60;37.90;;;;;;5012710;28;20184;-83
2023/05/13 12:39:24;;;;;;;2.13;1.50;;;23.60;38.10;;;;;;5143493;23;20561;31
2023/05/13 12:41:53;;;;;;;2.85;1.52;;;24.00;38.00;;;;;;4991568;28;20294;-83
2023/05/13 12:44:19;;;;;;;1.92;1.58;;;24.00;38.00;;;;;;4993386;28;20642;-82
2023/05/13 12:46:52;;;;;;;2.67;1.40;;;24.00;37.00;;;;;;4999044;28;20173;-82
2023/05/13 12:49:17;;;;;;;3.53;1.60;;;23.90;35.70;;;;;;5000570;28;20262;-83
2023/05/13 12:51:43;;;;;;;3.05;2.05;;;23.80;35.80;;;;;;5003035;28;20261;-83
2023/05/13 12:54:12;;;;;;;2.45;1.50;;;23.80;35.30;;;;;;5006463;28;20189;-81